ADDS METAR Data INFO
IDs: Format: Raw Decoded Include TAF

Data at: 2242 UTC 11 Dec 2017

METAR for:TJSJ (San Juan/Marin Intl, PR, US)
Text:TJSJ 112156Z 07007KT 10SM FEW034 SCT075 SCT095 27/21 A2989 RMK AO2 SLP121 T02670211
Temperature: 26.7°C ( 80°F)
Dewpoint: 21.1°C ( 70°F) [RH = 71%]
Pressure (altimeter):29.89 inches Hg (1012.3 mb) [Sea level pressure: 1012.1 mb]
Winds:from the ENE (70 degrees) at 8 MPH (7 knots; 3.6 m/s)
Visibility:10 or more sm (16+ km)
Ceiling:at least 12,000 feet AGL
Clouds: few clouds at 3400 feet AGL, scattered clouds at 7500 feet AGL, scattered clouds at 9500 feet AGL